Bookmark and Share
Track history (hours):
 

Marcel

Last reported at 2014-Apr-24 08:33 UTC. Time now 2014-Apr-24 09:11 UTC.
Position N 36°10' W 005°25'.

Length 88 m; draft 3.7 m.

Type: Cargo ship. MMSI: 205439000.

NotesDate/timePositionNaut miles runAvg speedWind from/ knotsBaromVisibWave heightAir tempDewpointWater temp
2014-Apr-24 08:33N 36°10' W 005°25'0 0.0
2014-Apr-24 07:32N 36°10' W 005°25'0 0.0
2014-Apr-24 06:30N 36°10' W 005°25'0 0.0
2014-Apr-24 05:31N 36°10' W 005°25'0 0.0
2014-Apr-24 04:29N 36°10' W 005°25'0 0.0
2014-Apr-24 03:25N 36°10' W 005°25'0 0.0
2014-Apr-24 02:25N 36°10' W 005°25'0 0.1
2014-Apr-24 01:32N 36°10' W 005°25'0 0.0
2014-Apr-24 00:33N 36°10' W 005°25'0 0.0
2014-Apr-23 23:31N 36°10' W 005°25'0 0.0
2014-Apr-23 22:32N 36°10' W 005°25'0 0.0
2014-Apr-23 21:30N 36°10' W 005°25'0 0.0
2014-Apr-23 20:34N 36°10' W 005°25'2 2.0
2014-Apr-23 19:34N 36°08' W 005°24'1 0.9
2014-Apr-23 18:33N 36°08' W 005°23'1 0.8
2014-Apr-23 17:33N 36°09' W 005°22'0 0.0
2014-Apr-23 16:32N 36°09' W 005°22'0 0.0
2014-Apr-23 15:32N 36°09' W 005°22'0 0.3
2014-Apr-23 14:33N 36°09' W 005°22'9 9.5
2014-Apr-23 13:33N 35°59' W 005°24'  
2014-Apr-16 05:17N 43°46' W 005°59'810.1
2014-Apr-16 04:31N 43°46' W 005°48'13 9.9
2014-Apr-16 03:12N 43°44' W 005°30'7 9.7
2014-Apr-16 02:28N 43°43' W 005°20'  

Dump ship's entire track history

sailing weather and tide predictions

Marcel — ONDP — position and weather